Time,TemperatureF,DewpointF,PressureIn,WindDirection,WindDirectionDegrees,WindSpeedMPH,WindSpeedGustMPH,Humidity,HourlyPrecipIn,Conditions,Clouds,dailyrainin,SolarRadiationWatts/m^2,SoftwareType,DateUTC
2013-06-27 00:22:00,75.0,61.0,-100.00,WNW,294,0.0,7.0,61,0.00,,,0.00,0.000000,,2013-06-27 07:22:00,
2013-06-27 00:33:00,75.0,61.0,-100.00,WNW,294,0.0,7.0,61,0.00,,,0.00,0.000000,,2013-06-27 07:33:00,
2013-06-27 00:42:00,75.0,61.0,-100.00,WNW,294,0.0,7.0,61,0.00,,,0.00,0.000000,,2013-06-27 07:42:00,
2013-06-27 00:52:00,75.0,61.0,-100.00,WNW,294,0.0,7.0,61,0.00,,,0.00,0.000000,,2013-06-27 07:52:00,
2013-06-27 01:22:00,75.0,60.0,-100.00,North,9,4.0,6.0,60,0.00,,,0.00,0.000000,,2013-06-27 08:22:00,
2013-06-27 01:34:00,75.0,60.0,-100.00,North,9,4.0,6.0,60,0.00,,,0.00,0.000000,,2013-06-27 08:34:00,
2013-06-27 01:43:00,75.0,60.0,-100.00,North,9,4.0,6.0,60,0.00,,,0.00,0.000000,,2013-06-27 08:43:00,
2013-06-27 01:52:00,75.0,60.0,-100.00,North,9,4.0,6.0,60,0.00,,,0.00,0.000000,,2013-06-27 08:52:00,
2013-06-27 02:34:00,74.0,59.0,-100.00,North,357,4.0,9.0,59,0.00,,,0.00,0.000000,,2013-06-27 09:34:00,
2013-06-27 02:43:00,74.0,59.0,-100.00,North,357,4.0,9.0,59,0.00,,,0.00,0.000000,,2013-06-27 09:43:00,
2013-06-27 02:53:00,74.0,59.0,-100.00,North,357,4.0,9.0,59,0.00,,,0.00,0.000000,,2013-06-27 09:53:00,
2013-06-27 03:22:00,74.0,57.0,-100.00,North,5,6.0,9.0,55,0.00,,,0.00,0.000000,,2013-06-27 10:22:00,
2013-06-27 03:32:00,74.0,57.0,-100.00,North,5,6.0,9.0,55,0.00,,,0.00,0.000000,,2013-06-27 10:32:00,
2013-06-27 03:43:00,74.0,57.0,-100.00,North,5,6.0,9.0,55,0.00,,,0.00,0.000000,,2013-06-27 10:43:00,
2013-06-27 03:54:00,74.0,57.0,-100.00,North,5,6.0,9.0,55,0.00,,,0.00,0.000000,,2013-06-27 10:54:00,
2013-06-27 04:21:00,73.0,56.0,-100.00,North,8,6.0,9.0,56,0.00,,,0.00,0.000000,,2013-06-27 11:21:00,
2013-06-27 04:33:00,73.0,56.0,-100.00,North,8,6.0,9.0,56,0.00,,,0.00,0.000000,,2013-06-27 11:33:00,
2013-06-27 04:43:00,73.0,56.0,-100.00,North,8,6.0,9.0,56,0.00,,,0.00,0.000000,,2013-06-27 11:43:00,
2013-06-27 04:52:00,73.0,56.0,-100.00,North,8,6.0,9.0,56,0.00,,,0.00,0.000000,,2013-06-27 11:52:00,
2013-06-27 05:22:00,72.0,55.0,-100.00,North,8,6.0,11.0,55,0.00,,,0.00,0.000000,,2013-06-27 12:22:00,
2013-06-27 05:34:00,72.0,55.0,-100.00,North,8,6.0,11.0,55,0.00,,,0.00,0.000000,,2013-06-27 12:34:00,
2013-06-27 05:42:00,72.0,55.0,-100.00,North,8,6.0,11.0,55,0.00,,,0.00,0.000000,,2013-06-27 12:42:00,
2013-06-27 06:34:00,69.0,52.0,-100.00,North,6,6.0,11.0,54,0.00,,,0.00,1.000000,,2013-06-27 13:34:00,
2013-06-27 06:43:00,69.0,52.0,-100.00,North,6,6.0,11.0,54,0.00,,,0.00,1.000000,,2013-06-27 13:43:00,
2013-06-27 06:52:00,69.0,52.0,-100.00,North,6,6.0,11.0,54,0.00,,,0.00,1.000000,,2013-06-27 13:52:00,
2013-06-27 07:22:00,69.0,52.0,-100.00,North,356,4.0,11.0,55,0.00,,,0.00,16.000000,,2013-06-27 14:22:00,
2013-06-27 07:33:00,69.0,52.0,-100.00,North,356,4.0,11.0,55,0.00,,,0.00,16.000000,,2013-06-27 14:33:00,
2013-06-27 07:43:00,69.0,52.0,-100.00,North,356,4.0,11.0,55,0.00,,,0.00,16.000000,,2013-06-27 14:43:00,
2013-06-27 07:52:00,69.0,52.0,-100.00,North,356,4.0,11.0,55,0.00,,,0.00,16.000000,,2013-06-27 14:52:00,
2013-06-27 08:22:00,77.0,54.0,-100.00,ESE,118,4.0,11.0,45,0.00,,,-99.99,225.000000,,2013-06-27 15:22:00,
2013-06-27 08:33:00,77.0,54.0,-100.00,ESE,118,4.0,11.0,45,0.00,,,-99.99,225.000000,,2013-06-27 15:33:00,
2013-06-27 08:42:00,77.0,54.0,-100.00,ESE,118,4.0,11.0,45,0.00,,,-99.99,225.000000,,2013-06-27 15:42:00,
2013-06-27 08:52:00,77.0,54.0,-100.00,ESE,118,4.0,11.0,45,0.00,,,-99.99,225.000000,,2013-06-27 15:52:00,
2013-06-27 09:33:00,84.0,53.0,-100.00,South,172,2.0,6.0,35,0.00,,,0.00,500.000000,,2013-06-27 16:33:00,
2013-06-27 09:43:00,84.0,53.0,-100.00,South,172,2.0,6.0,35,0.00,,,0.00,500.000000,,2013-06-27 16:43:00,
2013-06-27 09:53:00,84.0,53.0,-100.00,South,172,2.0,6.0,35,0.00,,,0.00,500.000000,,2013-06-27 16:53:00,
2013-06-27 10:22:00,83.0,55.0,-100.00,South,169,6.0,13.0,38,0.00,,,0.00,704.000000,,2013-06-27 17:22:00,
2013-06-27 10:33:00,83.0,55.0,-100.00,South,169,6.0,13.0,38,0.00,,,0.00,704.000000,,2013-06-27 17:33:00,
2013-06-27 10:43:00,83.0,55.0,-100.00,South,169,6.0,13.0,38,0.00,,,0.00,704.000000,,2013-06-27 17:43:00,
2013-06-27 10:53:00,83.0,55.0,-100.00,South,169,6.0,13.0,38,0.00,,,0.00,704.000000,,2013-06-27 17:53:00,
2013-06-27 12:33:00,91.0,55.0,-100.00,South,173,14.0,19.0,30,0.00,,,0.00,1004.000000,,2013-06-27 19:33:00,
2013-06-27 12:42:00,91.0,55.0,-100.00,South,173,14.0,19.0,30,0.00,,,0.00,1004.000000,,2013-06-27 19:42:00,
2013-06-27 12:53:00,91.0,55.0,-100.00,South,173,14.0,19.0,30,0.00,,,0.00,1004.000000,,2013-06-27 19:53:00,
2013-06-27 13:22:00,94.0,54.0,-100.00,SSE,168,14.0,21.0,26,0.00,,,0.00,1074.000000,,2013-06-27 20:22:00,
2013-06-27 13:36:00,94.0,54.0,-100.00,SSE,168,14.0,21.0,26,0.00,,,0.00,1074.000000,,2013-06-27 20:36:00,
2013-06-27 13:54:00,94.0,54.0,-100.00,SSE,168,14.0,21.0,26,0.00,,,0.00,1074.000000,,2013-06-27 20:54:00,
2013-06-27 14:24:00,95.0,54.0,-100.00,South,177,21.0,28.0,25,0.00,,,0.00,1085.000000,,2013-06-27 21:24:00,
2013-06-27 14:34:00,95.0,54.0,-100.00,South,177,21.0,28.0,25,0.00,,,0.00,1085.000000,,2013-06-27 21:34:00,
2013-06-27 14:44:00,95.0,54.0,-100.00,South,177,21.0,28.0,25,0.00,,,0.00,1085.000000,,2013-06-27 21:44:00,
2013-06-27 14:53:00,95.0,54.0,-100.00,South,177,21.0,28.0,25,0.00,,,0.00,1085.000000,,2013-06-27 21:53:00,
2013-06-27 15:22:00,99.0,52.0,-100.00,South,170,21.0,30.0,21,0.00,,,0.00,1030.000000,,2013-06-27 22:22:00,
2013-06-27 15:33:00,99.0,52.0,-100.00,South,170,21.0,30.0,21,0.00,,,0.00,1030.000000,,2013-06-27 22:33:00,
2013-06-27 15:45:00,99.0,52.0,-100.00,South,170,21.0,30.0,21,0.00,,,0.00,1030.000000,,2013-06-27 22:45:00,
2013-06-27 15:54:00,99.0,52.0,-100.00,South,170,21.0,30.0,21,0.00,,,0.00,1030.000000,,2013-06-27 22:54:00,
2013-06-27 16:34:00,99.0,53.0,-100.00,WSW,237,14.0,30.0,22,0.00,,,0.00,904.000000,,2013-06-27 23:34:00,
2013-06-27 16:43:00,99.0,53.0,-100.00,WSW,237,14.0,30.0,22,0.00,,,0.00,904.000000,,2013-06-27 23:43:00,
2013-06-27 16:54:00,99.0,53.0,-100.00,WSW,237,14.0,30.0,22,0.00,,,0.00,904.000000,,2013-06-27 23:54:00,
2013-06-27 17:25:00,98.0,55.0,-100.00,WNW,299,11.0,31.0,24,0.00,,,0.00,730.000000,,2013-06-28 00:25:00,
2013-06-27 17:34:00,98.0,55.0,-100.00,WNW,299,11.0,31.0,24,0.00,,,0.00,730.000000,,2013-06-28 00:34:00,
2013-06-27 17:44:00,98.0,55.0,-100.00,WNW,299,11.0,31.0,24,0.00,,,0.00,730.000000,,2013-06-28 00:44:00,
2013-06-27 17:53:00,98.0,55.0,-100.00,WNW,299,11.0,31.0,24,0.00,,,0.00,730.000000,,2013-06-28 00:53:00,
2013-06-27 18:23:00,95.0,51.0,-100.00,WNW,293,19.0,32.0,23,0.00,,,0.00,530.000000,,2013-06-28 01:23:00,
2013-06-27 18:45:00,95.0,51.0,-100.00,WNW,293,19.0,32.0,23,0.00,,,0.00,530.000000,,2013-06-28 01:45:00,
2013-06-27 18:53:00,95.0,51.0,-100.00,WNW,293,19.0,32.0,23,0.00,,,0.00,530.000000,,2013-06-28 01:53:00,
2013-06-27 19:35:00,91.0,56.0,-100.00,SE,139,12.0,23.0,31,0.00,,,0.00,312.000000,,2013-06-28 02:35:00,
2013-06-27 19:52:00,91.0,56.0,-100.00,SE,139,12.0,23.0,31,0.00,,,0.00,312.000000,,2013-06-28 02:52:00,
2013-06-27 20:35:00,86.0,57.0,-100.00,SSE,165,21.0,27.0,37,0.00,,,-99.99,80.000000,,2013-06-28 03:35:00,
2013-06-27 20:44:00,86.0,57.0,-100.00,SSE,165,21.0,27.0,37,0.00,,,-99.99,80.000000,,2013-06-28 03:44:00,
2013-06-27 20:53:00,86.0,57.0,-100.00,SSE,165,21.0,27.0,37,0.00,,,-99.99,80.000000,,2013-06-28 03:53:00,
2013-06-27 21:33:00,85.0,59.0,-100.00,SSE,163,17.0,26.0,41,0.00,,,0.00,2.000000,,2013-06-28 04:33:00,
2013-06-27 21:43:00,85.0,59.0,-100.00,SSE,163,17.0,26.0,41,0.00,,,0.00,2.000000,,2013-06-28 04:43:00,
2013-06-27 21:53:00,85.0,59.0,-100.00,SSE,163,17.0,26.0,41,0.00,,,0.00,2.000000,,2013-06-28 04:53:00,
2013-06-27 22:22:00,82.0,60.0,-100.00,South,177,8.0,22.0,47,0.00,,,0.00,0.000000,,2013-06-28 05:22:00,
2013-06-27 22:33:00,82.0,60.0,-100.00,South,177,8.0,22.0,47,0.00,,,0.00,0.000000,,2013-06-28 05:33:00,
2013-06-27 22:43:00,82.0,60.0,-100.00,South,177,8.0,22.0,47,0.00,,,0.00,0.000000,,2013-06-28 05:43:00,
2013-06-27 22:52:00,82.0,60.0,-100.00,South,177,8.0,22.0,47,0.00,,,0.00,0.000000,,2013-06-28 05:52:00,
2013-06-27 23:22:00,80.0,61.0,-100.00,South,190,3.0,15.0,52,0.00,,,0.00,0.000000,,2013-06-28 06:22:00,
2013-06-27 23:33:00,80.0,61.0,-100.00,South,190,3.0,15.0,52,0.00,,,0.00,0.000000,,2013-06-28 06:33:00,
2013-06-27 23:42:00,80.0,61.0,-100.00,South,190,3.0,15.0,52,0.00,,,0.00,0.000000,,2013-06-28 06:42:00,
2013-06-27 23:52:00,80.0,61.0,-100.00,South,190,3.0,15.0,52,0.00,,,0.00,0.000000,,2013-06-28 06:52:00,